sensor_id;sensor_type;location;lat;lon;timestamp;P1;durP1;ratioP1;P2;durP2;ratioP2
75059;SDS011;63640;59.264;18.116;2023-07-02T00:00:57;7.30;;;2.90;;
75059;SDS011;63640;59.264;18.116;2023-07-02T00:03:24;5.32;;;2.83;;
75059;SDS011;63640;59.264;18.116;2023-07-02T00:05:50;5.95;;;2.58;;
75059;SDS011;63640;59.264;18.116;2023-07-02T00:08:19;5.63;;;2.30;;
75059;SDS011;63640;59.264;18.116;2023-07-02T00:10:46;5.22;;;2.40;;
75059;SDS011;63640;59.264;18.116;2023-07-02T00:13:12;4.25;;;2.20;;
75059;SDS011;63640;59.264;18.116;2023-07-02T00:15:37;5.45;;;2.20;;
75059;SDS011;63640;59.264;18.116;2023-07-02T00:18:03;5.70;;;2.40;;
75059;SDS011;63640;59.264;18.116;2023-07-02T00:20:28;6.05;;;2.50;;
75059;SDS011;63640;59.264;18.116;2023-07-02T00:22:55;6.35;;;2.70;;
75059;SDS011;63640;59.264;18.116;2023-07-02T00:25:21;6.43;;;2.60;;
75059;SDS011;63640;59.264;18.116;2023-07-02T00:27:46;6.10;;;2.90;;
75059;SDS011;63640;59.264;18.116;2023-07-02T00:30:12;4.97;;;2.50;;
75059;SDS011;63640;59.264;18.116;2023-07-02T00:32:38;6.32;;;2.60;;
75059;SDS011;63640;59.264;18.116;2023-07-02T00:35:04;6.70;;;3.10;;
75059;SDS011;63640;59.264;18.116;2023-07-02T00:37:30;5.30;;;2.67;;
75059;SDS011;63640;59.264;18.116;2023-07-02T00:39:55;5.00;;;2.60;;
75059;SDS011;63640;59.264;18.116;2023-07-02T00:42:21;5.07;;;2.53;;
75059;SDS011;63640;59.264;18.116;2023-07-02T00:44:48;6.90;;;2.70;;
75059;SDS011;63640;59.264;18.116;2023-07-02T00:47:14;8.00;;;3.03;;
75059;SDS011;63640;59.264;18.116;2023-07-02T00:49:41;5.93;;;2.70;;
75059;SDS011;63640;59.264;18.116;2023-07-02T00:52:07;6.10;;;2.63;;
75059;SDS011;63640;59.264;18.116;2023-07-02T00:54:32;6.95;;;2.53;;
75059;SDS011;63640;59.264;18.116;2023-07-02T00:56:58;6.28;;;2.90;;
75059;SDS011;63640;59.264;18.116;2023-07-02T00:59:29;6.50;;;3.22;;
75059;SDS011;63640;59.264;18.116;2023-07-02T01:01:55;6.28;;;2.83;;
75059;SDS011;63640;59.264;18.116;2023-07-02T01:04:22;6.55;;;2.72;;
75059;SDS011;63640;59.264;18.116;2023-07-02T01:06:52;6.95;;;3.10;;
75059;SDS011;63640;59.264;18.116;2023-07-02T01:09:22;6.03;;;3.00;;
75059;SDS011;63640;59.264;18.116;2023-07-02T01:11:52;5.10;;;2.67;;
75059;SDS011;63640;59.264;18.116;2023-07-02T01:14:22;6.95;;;2.65;;
75059;SDS011;63640;59.264;18.116;2023-07-02T01:16:59;5.45;;;2.95;;
75059;SDS011;63640;59.264;18.116;2023-07-02T01:22:06;5.60;;;2.72;;
75059;SDS011;63640;59.264;18.116;2023-07-02T01:24:32;7.10;;;2.90;;
75059;SDS011;63640;59.264;18.116;2023-07-02T01:26:58;6.95;;;2.92;;
75059;SDS011;63640;59.264;18.116;2023-07-02T01:29:28;6.30;;;3.03;;
75059;SDS011;63640;59.264;18.116;2023-07-02T01:31:55;6.55;;;2.90;;
75059;SDS011;63640;59.264;18.116;2023-07-02T01:34:21;6.22;;;3.08;;
75059;SDS011;63640;59.264;18.116;2023-07-02T01:36:47;6.68;;;3.00;;
75059;SDS011;63640;59.264;18.116;2023-07-02T01:39:12;5.78;;;2.80;;
75059;SDS011;63640;59.264;18.116;2023-07-02T01:44:20;6.35;;;3.08;;
75059;SDS011;63640;59.264;18.116;2023-07-02T01:46:46;6.40;;;2.63;;
75059;SDS011;63640;59.264;18.116;2023-07-02T01:49:15;5.43;;;2.75;;
75059;SDS011;63640;59.264;18.116;2023-07-02T01:51:44;6.03;;;3.03;;
75059;SDS011;63640;59.264;18.116;2023-07-02T01:54:14;6.32;;;3.30;;
75059;SDS011;63640;59.264;18.116;2023-07-02T01:56:39;5.55;;;3.13;;
75059;SDS011;63640;59.264;18.116;2023-07-02T01:59:05;6.35;;;3.08;;
75059;SDS011;63640;59.264;18.116;2023-07-02T02:01:30;5.50;;;2.97;;
75059;SDS011;63640;59.264;18.116;2023-07-02T02:03:57;6.95;;;2.80;;
75059;SDS011;63640;59.264;18.116;2023-07-02T02:06:23;6.15;;;3.00;;
75059;SDS011;63640;59.264;18.116;2023-07-02T02:08:49;5.32;;;2.83;;
75059;SDS011;63640;59.264;18.116;2023-07-02T02:11:14;6.88;;;3.17;;
75059;SDS011;63640;59.264;18.116;2023-07-02T02:13:40;6.60;;;2.75;;
75059;SDS011;63640;59.264;18.116;2023-07-02T02:16:05;6.45;;;3.13;;
75059;SDS011;63640;59.264;18.116;2023-07-02T02:18:31;7.05;;;3.03;;
75059;SDS011;63640;59.264;18.116;2023-07-02T02:20:56;6.15;;;2.60;;
75059;SDS011;63640;59.264;18.116;2023-07-02T02:23:22;6.72;;;3.17;;
75059;SDS011;63640;59.264;18.116;2023-07-02T02:25:47;5.97;;;3.00;;
75059;SDS011;63640;59.264;18.116;2023-07-02T02:28:13;5.65;;;2.72;;
75059;SDS011;63640;59.264;18.116;2023-07-02T02:30:38;6.88;;;3.03;;
75059;SDS011;63640;59.264;18.116;2023-07-02T02:33:04;5.90;;;2.58;;
75059;SDS011;63640;59.264;18.116;2023-07-02T02:35:29;7.43;;;3.38;;
75059;SDS011;63640;59.264;18.116;2023-07-02T02:37:54;6.30;;;3.00;;
75059;SDS011;63640;59.264;18.116;2023-07-02T02:40:20;5.95;;;2.72;;
75059;SDS011;63640;59.264;18.116;2023-07-02T02:42:45;7.25;;;2.92;;
75059;SDS011;63640;59.264;18.116;2023-07-02T02:45:11;6.38;;;3.22;;
75059;SDS011;63640;59.264;18.116;2023-07-02T02:47:36;5.25;;;3.10;;
75059;SDS011;63640;59.264;18.116;2023-07-02T02:50:02;6.05;;;3.25;;
75059;SDS011;63640;59.264;18.116;2023-07-02T02:52:28;6.35;;;3.00;;
75059;SDS011;63640;59.264;18.116;2023-07-02T02:54:53;5.90;;;3.15;;
75059;SDS011;63640;59.264;18.116;2023-07-02T02:57:19;8.13;;;3.25;;
75059;SDS011;63640;59.264;18.116;2023-07-02T02:59:44;5.38;;;2.42;;
75059;SDS011;63640;59.264;18.116;2023-07-02T03:02:10;5.93;;;3.00;;
75059;SDS011;63640;59.264;18.116;2023-07-02T03:04:36;8.75;;;3.03;;
75059;SDS011;63640;59.264;18.116;2023-07-02T03:07:05;6.75;;;3.35;;
75059;SDS011;63640;59.264;18.116;2023-07-02T03:09:31;7.20;;;3.25;;
75059;SDS011;63640;59.264;18.116;2023-07-02T03:12:00;5.53;;;3.05;;
75059;SDS011;63640;59.264;18.116;2023-07-02T03:14:25;7.07;;;2.88;;
75059;SDS011;63640;59.264;18.116;2023-07-02T03:16:51;5.05;;;2.70;;
75059;SDS011;63640;59.264;18.116;2023-07-02T03:19:16;5.43;;;2.72;;
75059;SDS011;63640;59.264;18.116;2023-07-02T03:21:43;6.70;;;2.78;;
75059;SDS011;63640;59.264;18.116;2023-07-02T03:24:08;5.68;;;2.70;;
75059;SDS011;63640;59.264;18.116;2023-07-02T03:26:37;7.35;;;2.97;;
75059;SDS011;63640;59.264;18.116;2023-07-02T03:29:03;5.32;;;2.92;;
75059;SDS011;63640;59.264;18.116;2023-07-02T03:31:28;5.47;;;2.63;;
75059;SDS011;63640;59.264;18.116;2023-07-02T03:33:54;5.28;;;2.95;;
75059;SDS011;63640;59.264;18.116;2023-07-02T03:36:19;5.43;;;2.63;;
75059;SDS011;63640;59.264;18.116;2023-07-02T03:38:45;5.85;;;2.85;;
75059;SDS011;63640;59.264;18.116;2023-07-02T03:41:10;5.70;;;2.72;;
75059;SDS011;63640;59.264;18.116;2023-07-02T03:43:36;6.43;;;2.90;;
75059;SDS011;63640;59.264;18.116;2023-07-02T03:46:01;4.97;;;2.90;;
75059;SDS011;63640;59.264;18.116;2023-07-02T03:48:27;5.60;;;2.85;;
75059;SDS011;63640;59.264;18.116;2023-07-02T03:50:53;4.75;;;2.78;;
75059;SDS011;63640;59.264;18.116;2023-07-02T03:53:18;6.47;;;2.80;;
75059;SDS011;63640;59.264;18.116;2023-07-02T03:55:44;5.60;;;2.67;;
75059;SDS011;63640;59.264;18.116;2023-07-02T03:58:09;5.40;;;2.90;;
75059;SDS011;63640;59.264;18.116;2023-07-02T04:00:35;7.22;;;2.92;;
75059;SDS011;63640;59.264;18.116;2023-07-02T04:03:00;5.32;;;2.72;;
75059;SDS011;63640;59.264;18.116;2023-07-02T04:05:27;5.18;;;2.88;;
75059;SDS011;63640;59.264;18.116;2023-07-02T04:07:52;6.35;;;2.80;;
75059;SDS011;63640;59.264;18.116;2023-07-02T04:10:18;6.97;;;2.83;;
75059;SDS011;63640;59.264;18.116;2023-07-02T04:12:43;6.47;;;3.00;;
75059;SDS011;63640;59.264;18.116;2023-07-02T04:15:09;5.38;;;2.85;;
75059;SDS011;63640;59.264;18.116;2023-07-02T04:17:35;5.90;;;2.72;;
75059;SDS011;63640;59.264;18.116;2023-07-02T04:20:01;6.30;;;2.75;;
75059;SDS011;63640;59.264;18.116;2023-07-02T04:22:29;5.68;;;3.10;;
75059;SDS011;63640;59.264;18.116;2023-07-02T04:24:55;7.55;;;2.92;;
75059;SDS011;63640;59.264;18.116;2023-07-02T04:27:21;5.05;;;2.90;;
75059;SDS011;63640;59.264;18.116;2023-07-02T04:29:47;6.70;;;3.00;;
75059;SDS011;63640;59.264;18.116;2023-07-02T04:32:12;6.30;;;3.20;;
75059;SDS011;63640;59.264;18.116;2023-07-02T04:34:38;5.93;;;3.00;;
75059;SDS011;63640;59.264;18.116;2023-07-02T04:37:04;5.03;;;2.60;;
75059;SDS011;63640;59.264;18.116;2023-07-02T04:39:29;6.82;;;2.88;;
75059;SDS011;63640;59.264;18.116;2023-07-02T04:41:55;6.00;;;2.40;;
75059;SDS011;63640;59.264;18.116;2023-07-02T04:44:20;8.15;;;3.17;;
75059;SDS011;63640;59.264;18.116;2023-07-02T04:47:01;5.38;;;2.88;;
75059;SDS011;63640;59.264;18.116;2023-07-02T04:49:27;6.45;;;2.90;;
75059;SDS011;63640;59.264;18.116;2023-07-02T04:51:53;6.30;;;3.00;;
75059;SDS011;63640;59.264;18.116;2023-07-02T04:54:21;6.78;;;3.40;;
75059;SDS011;63640;59.264;18.116;2023-07-02T04:56:47;5.90;;;2.70;;
75059;SDS011;63640;59.264;18.116;2023-07-02T04:59:13;5.38;;;2.67;;
75059;SDS011;63640;59.264;18.116;2023-07-02T05:01:39;5.38;;;2.60;;
75059;SDS011;63640;59.264;18.116;2023-07-02T05:04:05;6.13;;;3.00;;
75059;SDS011;63640;59.264;18.116;2023-07-02T05:06:30;7.03;;;2.72;;
75059;SDS011;63640;59.264;18.116;2023-07-02T05:08:56;7.20;;;2.60;;
75059;SDS011;63640;59.264;18.116;2023-07-02T05:11:21;5.30;;;2.80;;
75059;SDS011;63640;59.264;18.116;2023-07-02T05:13:47;5.70;;;2.75;;
75059;SDS011;63640;59.264;18.116;2023-07-02T05:16:12;5.95;;;2.60;;
75059;SDS011;63640;59.264;18.116;2023-07-02T05:18:38;8.82;;;2.97;;
75059;SDS011;63640;59.264;18.116;2023-07-02T05:21:04;5.95;;;2.53;;
75059;SDS011;63640;59.264;18.116;2023-07-02T05:23:30;6.78;;;2.75;;
75059;SDS011;63640;59.264;18.116;2023-07-02T05:25:55;5.82;;;2.70;;
75059;SDS011;63640;59.264;18.116;2023-07-02T05:28:21;6.45;;;3.20;;
75059;SDS011;63640;59.264;18.116;2023-07-02T05:30:46;6.50;;;2.83;;
75059;SDS011;63640;59.264;18.116;2023-07-02T05:33:11;5.88;;;2.85;;
75059;SDS011;63640;59.264;18.116;2023-07-02T05:35:38;6.63;;;2.95;;
75059;SDS011;63640;59.264;18.116;2023-07-02T05:38:03;5.80;;;2.60;;
75059;SDS011;63640;59.264;18.116;2023-07-02T05:40:28;6.75;;;3.20;;
75059;SDS011;63640;59.264;18.116;2023-07-02T05:42:54;9.65;;;2.50;;
75059;SDS011;63640;59.264;18.116;2023-07-02T05:45:20;5.38;;;2.97;;
75059;SDS011;63640;59.264;18.116;2023-07-02T05:47:45;7.03;;;2.80;;
75059;SDS011;63640;59.264;18.116;2023-07-02T05:50:10;5.75;;;2.90;;
75059;SDS011;63640;59.264;18.116;2023-07-02T05:52:36;5.70;;;2.70;;
75059;SDS011;63640;59.264;18.116;2023-07-02T05:55:02;7.30;;;2.92;;
75059;SDS011;63640;59.264;18.116;2023-07-02T05:57:27;5.30;;;3.00;;
75059;SDS011;63640;59.264;18.116;2023-07-02T05:59:53;9.65;;;2.90;;
75059;SDS011;63640;59.264;18.116;2023-07-02T06:02:18;5.70;;;2.80;;
75059;SDS011;63640;59.264;18.116;2023-07-02T06:04:44;5.30;;;2.90;;
75059;SDS011;63640;59.264;18.116;2023-07-02T06:07:09;6.28;;;2.58;;
75059;SDS011;63640;59.264;18.116;2023-07-02T06:09:35;6.25;;;2.67;;
75059;SDS011;63640;59.264;18.116;2023-07-02T06:12:00;5.78;;;2.83;;
75059;SDS011;63640;59.264;18.116;2023-07-02T06:14:26;5.65;;;2.30;;
75059;SDS011;63640;59.264;18.116;2023-07-02T06:16:52;5.82;;;2.80;;
75059;SDS011;63640;59.264;18.116;2023-07-02T06:19:18;5.47;;;2.42;;
75059;SDS011;63640;59.264;18.116;2023-07-02T06:21:43;5.63;;;2.58;;
75059;SDS011;63640;59.264;18.116;2023-07-02T06:24:08;6.10;;;2.75;;
75059;SDS011;63640;59.264;18.116;2023-07-02T06:26:34;5.43;;;3.10;;
75059;SDS011;63640;59.264;18.116;2023-07-02T06:29:00;4.72;;;2.40;;
75059;SDS011;63640;59.264;18.116;2023-07-02T06:31:25;4.88;;;2.50;;
75059;SDS011;63640;59.264;18.116;2023-07-02T06:33:51;5.65;;;3.00;;
75059;SDS011;63640;59.264;18.116;2023-07-02T06:36:16;4.85;;;2.60;;
75059;SDS011;63640;59.264;18.116;2023-07-02T06:38:43;5.18;;;2.60;;
75059;SDS011;63640;59.264;18.116;2023-07-02T06:41:08;5.88;;;2.55;;
75059;SDS011;63640;59.264;18.116;2023-07-02T06:43:34;6.15;;;3.10;;
75059;SDS011;63640;59.264;18.116;2023-07-02T06:45:59;5.53;;;2.90;;
75059;SDS011;63640;59.264;18.116;2023-07-02T06:48:25;5.10;;;2.55;;
75059;SDS011;63640;59.264;18.116;2023-07-02T06:50:50;8.63;;;2.50;;
75059;SDS011;63640;59.264;18.116;2023-07-02T06:53:16;6.05;;;3.22;;
75059;SDS011;63640;59.264;18.116;2023-07-02T06:55:41;4.93;;;2.53;;
75059;SDS011;63640;59.264;18.116;2023-07-02T06:58:07;4.95;;;2.63;;
75059;SDS011;63640;59.264;18.116;2023-07-02T07:00:33;5.95;;;2.63;;
75059;SDS011;63640;59.264;18.116;2023-07-02T07:03:01;6.45;;;2.90;;
75059;SDS011;63640;59.264;18.116;2023-07-02T07:05:30;5.80;;;2.50;;
75059;SDS011;63640;59.264;18.116;2023-07-02T07:07:56;5.57;;;2.63;;
75059;SDS011;63640;59.264;18.116;2023-07-02T07:10:22;4.88;;;2.50;;
75059;SDS011;63640;59.264;18.116;2023-07-02T07:12:48;4.75;;;2.60;;
75059;SDS011;63640;59.264;18.116;2023-07-02T07:15:13;5.30;;;2.80;;
75059;SDS011;63640;59.264;18.116;2023-07-02T07:17:39;4.95;;;2.47;;
75059;SDS011;63640;59.264;18.116;2023-07-02T07:20:04;4.47;;;2.25;;
75059;SDS011;63640;59.264;18.116;2023-07-02T07:22:30;4.75;;;2.35;;
75059;SDS011;63640;59.264;18.116;2023-07-02T07:24:56;5.25;;;2.38;;
75059;SDS011;63640;59.264;18.116;2023-07-02T07:27:24;5.80;;;2.78;;
75059;SDS011;63640;59.264;18.116;2023-07-02T07:29:50;4.55;;;2.05;;
75059;SDS011;63640;59.264;18.116;2023-07-02T07:32:15;5.18;;;2.50;;
75059;SDS011;63640;59.264;18.116;2023-07-02T07:34:42;5.30;;;2.33;;
75059;SDS011;63640;59.264;18.116;2023-07-02T07:37:08;4.88;;;2.50;;
75059;SDS011;63640;59.264;18.116;2023-07-02T07:39:33;5.95;;;2.60;;
75059;SDS011;63640;59.264;18.116;2023-07-02T07:41:59;4.80;;;2.63;;
75059;SDS011;63640;59.264;18.116;2023-07-02T07:44:24;5.63;;;2.80;;
75059;SDS011;63640;59.264;18.116;2023-07-02T07:46:54;5.82;;;2.97;;
75059;SDS011;63640;59.264;18.116;2023-07-02T07:49:20;5.78;;;2.90;;
75059;SDS011;63640;59.264;18.116;2023-07-02T07:51:46;9.27;;;2.63;;
75059;SDS011;63640;59.264;18.116;2023-07-02T07:54:12;6.35;;;3.22;;
75059;SDS011;63640;59.264;18.116;2023-07-02T07:56:38;8.48;;;3.60;;
75059;SDS011;63640;59.264;18.116;2023-07-02T07:59:03;6.57;;;2.80;;
75059;SDS011;63640;59.264;18.116;2023-07-02T08:01:29;6.72;;;3.42;;
75059;SDS011;63640;59.264;18.116;2023-07-02T08:03:54;6.30;;;3.30;;
75059;SDS011;63640;59.264;18.116;2023-07-02T08:06:20;5.20;;;2.75;;
75059;SDS011;63640;59.264;18.116;2023-07-02T08:08:45;5.75;;;2.85;;
75059;SDS011;63640;59.264;18.116;2023-07-02T08:11:11;6.35;;;3.10;;
75059;SDS011;63640;59.264;18.116;2023-07-02T08:13:37;6.50;;;3.33;;
75059;SDS011;63640;59.264;18.116;2023-07-02T08:16:02;6.40;;;3.50;;
75059;SDS011;63640;59.264;18.116;2023-07-02T08:18:28;7.18;;;3.40;;
75059;SDS011;63640;59.264;18.116;2023-07-02T08:20:54;7.47;;;3.47;;
75059;SDS011;63640;59.264;18.116;2023-07-02T08:23:19;6.65;;;3.90;;
75059;SDS011;63640;59.264;18.116;2023-07-02T08:25:45;8.95;;;3.92;;
75059;SDS011;63640;59.264;18.116;2023-07-02T08:28:10;6.82;;;3.90;;
75059;SDS011;63640;59.264;18.116;2023-07-02T08:30:36;6.88;;;4.20;;
75059;SDS011;63640;59.264;18.116;2023-07-02T08:33:01;10.85;;;4.40;;
75059;SDS011;63640;59.264;18.116;2023-07-02T08:35:27;7.88;;;4.30;;
75059;SDS011;63640;59.264;18.116;2023-07-02T08:37:52;8.75;;;4.88;;
75059;SDS011;63640;59.264;18.116;2023-07-02T08:40:18;7.28;;;4.35;;
75059;SDS011;63640;59.264;18.116;2023-07-02T08:42:47;8.60;;;4.35;;
75059;SDS011;63640;59.264;18.116;2023-07-02T08:45:14;6.65;;;4.18;;
75059;SDS011;63640;59.264;18.116;2023-07-02T08:47:40;6.55;;;3.80;;
75059;SDS011;63640;59.264;18.116;2023-07-02T08:50:06;10.95;;;5.78;;
75059;SDS011;63640;59.264;18.116;2023-07-02T08:52:31;7.55;;;4.85;;
75059;SDS011;63640;59.264;18.116;2023-07-02T08:54:57;6.13;;;4.20;;
75059;SDS011;63640;59.264;18.116;2023-07-02T08:57:23;7.38;;;3.97;;
75059;SDS011;63640;59.264;18.116;2023-07-02T08:59:48;8.00;;;4.30;;
75059;SDS011;63640;59.264;18.116;2023-07-02T09:02:16;8.05;;;3.13;;
75059;SDS011;63640;59.264;18.116;2023-07-02T09:04:42;5.60;;;3.30;;
75059;SDS011;63640;59.264;18.116;2023-07-02T09:07:10;7.38;;;3.53;;
75059;SDS011;63640;59.264;18.116;2023-07-02T09:09:45;6.72;;;3.08;;
75059;SDS011;63640;59.264;18.116;2023-07-02T09:12:24;5.60;;;3.38;;
75059;SDS011;63640;59.264;18.116;2023-07-02T09:14:57;10.27;;;3.28;;
75059;SDS011;63640;59.264;18.116;2023-07-02T09:17:37;5.90;;;2.63;;
75059;SDS011;63640;59.264;18.116;2023-07-02T09:20:05;5.55;;;3.15;;
75059;SDS011;63640;59.264;18.116;2023-07-02T09:22:35;6.07;;;3.00;;
75059;SDS011;63640;59.264;18.116;2023-07-02T09:25:01;5.03;;;3.15;;
75059;SDS011;63640;59.264;18.116;2023-07-02T09:27:40;7.03;;;2.67;;
75059;SDS011;63640;59.264;18.116;2023-07-02T09:32:33;5.75;;;3.00;;
75059;SDS011;63640;59.264;18.116;2023-07-02T09:34:59;5.72;;;3.35;;
75059;SDS011;63640;59.264;18.116;2023-07-02T09:37:24;6.30;;;3.13;;
75059;SDS011;63640;59.264;18.116;2023-07-02T09:39:50;6.63;;;3.60;;
75059;SDS011;63640;59.264;18.116;2023-07-02T09:42:19;4.50;;;2.35;;
75059;SDS011;63640;59.264;18.116;2023-07-02T09:44:45;5.47;;;2.83;;
75059;SDS011;63640;59.264;18.116;2023-07-02T09:47:12;6.18;;;2.80;;
75059;SDS011;63640;59.264;18.116;2023-07-02T09:49:47;5.38;;;2.63;;
75059;SDS011;63640;59.264;18.116;2023-07-02T09:52:15;6.15;;;3.20;;
75059;SDS011;63640;59.264;18.116;2023-07-02T09:54:41;5.75;;;2.78;;
75059;SDS011;63640;59.264;18.116;2023-07-02T09:57:07;8.10;;;3.70;;
75059;SDS011;63640;59.264;18.116;2023-07-02T09:59:33;5.40;;;2.85;;
75059;SDS011;63640;59.264;18.116;2023-07-02T10:01:59;5.55;;;3.38;;
75059;SDS011;63640;59.264;18.116;2023-07-02T10:04:24;5.28;;;2.80;;
75059;SDS011;63640;59.264;18.116;2023-07-02T10:06:51;6.20;;;3.53;;
75059;SDS011;63640;59.264;18.116;2023-07-02T10:09:17;5.50;;;2.80;;
75059;SDS011;63640;59.264;18.116;2023-07-02T10:11:44;6.15;;;3.50;;
75059;SDS011;63640;59.264;18.116;2023-07-02T10:14:09;5.72;;;3.10;;
75059;SDS011;63640;59.264;18.116;2023-07-02T10:16:48;5.38;;;3.25;;
75059;SDS011;63640;59.264;18.116;2023-07-02T10:19:16;6.13;;;4.00;;
75059;SDS011;63640;59.264;18.116;2023-07-02T10:21:42;5.50;;;3.05;;
75059;SDS011;63640;59.264;18.116;2023-07-02T10:26:36;7.45;;;4.28;;
75059;SDS011;63640;59.264;18.116;2023-07-02T10:29:02;6.10;;;3.80;;
75059;SDS011;63640;59.264;18.116;2023-07-02T10:31:27;7.03;;;4.32;;
75059;SDS011;63640;59.264;18.116;2023-07-02T10:33:53;6.60;;;4.15;;
75059;SDS011;63640;59.264;18.116;2023-07-02T10:36:22;7.32;;;4.22;;
75059;SDS011;63640;59.264;18.116;2023-07-02T10:38:50;6.07;;;3.72;;
75059;SDS011;63640;59.264;18.116;2023-07-02T10:41:26;5.93;;;3.58;;
75059;SDS011;63640;59.264;18.116;2023-07-02T10:43:54;6.65;;;3.53;;
75059;SDS011;63640;59.264;18.116;2023-07-02T10:46:20;6.90;;;3.80;;
75059;SDS011;63640;59.264;18.116;2023-07-02T10:48:55;7.38;;;4.55;;
75059;SDS011;63640;59.264;18.116;2023-07-02T10:51:21;7.03;;;3.95;;
75059;SDS011;63640;59.264;18.116;2023-07-02T10:54:00;6.57;;;4.03;;
75059;SDS011;63640;59.264;18.116;2023-07-02T10:56:26;6.68;;;4.28;;
75059;SDS011;63640;59.264;18.116;2023-07-02T10:58:55;6.72;;;4.20;;
75059;SDS011;63640;59.264;18.116;2023-07-02T11:01:24;7.00;;;3.88;;
75059;SDS011;63640;59.264;18.116;2023-07-02T11:04:09;7.20;;;4.05;;
75059;SDS011;63640;59.264;18.116;2023-07-02T11:06:35;9.40;;;5.95;;
75059;SDS011;63640;59.264;18.116;2023-07-02T11:09:01;7.85;;;4.82;;
75059;SDS011;63640;59.264;18.116;2023-07-02T11:11:26;6.80;;;4.38;;
75059;SDS011;63640;59.264;18.116;2023-07-02T11:13:52;8.13;;;4.47;;
75059;SDS011;63640;59.264;18.116;2023-07-02T11:16:25;7.47;;;5.10;;
75059;SDS011;63640;59.264;18.116;2023-07-02T11:18:52;7.00;;;4.47;;
75059;SDS011;63640;59.264;18.116;2023-07-02T11:21:18;10.45;;;6.22;;
75059;SDS011;63640;59.264;18.116;2023-07-02T11:23:44;7.72;;;5.13;;
75059;SDS011;63640;59.264;18.116;2023-07-02T11:26:09;6.55;;;3.75;;
75059;SDS011;63640;59.264;18.116;2023-07-02T11:28:35;7.03;;;4.32;;
75059;SDS011;63640;59.264;18.116;2023-07-02T11:31:00;7.10;;;4.70;;
75059;SDS011;63640;59.264;18.116;2023-07-02T11:33:37;5.43;;;3.33;;
75059;SDS011;63640;59.264;18.116;2023-07-02T11:36:04;6.22;;;4.15;;
75059;SDS011;63640;59.264;18.116;2023-07-02T11:38:30;6.07;;;3.33;;
75059;SDS011;63640;59.264;18.116;2023-07-02T11:40:56;6.03;;;3.47;;
75059;SDS011;63640;59.264;18.116;2023-07-02T11:43:21;15.23;;;5.55;;
75059;SDS011;63640;59.264;18.116;2023-07-02T11:45:47;32.53;;;8.18;;
75059;SDS011;63640;59.264;18.116;2023-07-02T11:48:12;39.05;;;8.40;;
75059;SDS011;63640;59.264;18.116;2023-07-02T11:50:38;18.85;;;4.43;;
75059;SDS011;63640;59.264;18.116;2023-07-02T11:53:03;12.70;;;4.95;;
75059;SDS011;63640;59.264;18.116;2023-07-02T11:55:29;8.80;;;4.10;;
75059;SDS011;63640;59.264;18.116;2023-07-02T11:57:55;7.13;;;3.58;;
75059;SDS011;63640;59.264;18.116;2023-07-02T12:00:20;6.32;;;2.70;;
75059;SDS011;63640;59.264;18.116;2023-07-02T12:02:46;4.88;;;2.30;;
75059;SDS011;63640;59.264;18.116;2023-07-02T12:05:11;5.00;;;2.35;;
75059;SDS011;63640;59.264;18.116;2023-07-02T12:07:37;7.20;;;3.28;;
75059;SDS011;63640;59.264;18.116;2023-07-02T12:10:02;7.25;;;3.20;;
75059;SDS011;63640;59.264;18.116;2023-07-02T12:12:28;7.28;;;4.10;;
75059;SDS011;63640;59.264;18.116;2023-07-02T12:14:53;5.60;;;3.33;;
75059;SDS011;63640;59.264;18.116;2023-07-02T12:17:19;5.40;;;2.30;;
75059;SDS011;63640;59.264;18.116;2023-07-02T12:19:44;5.22;;;3.03;;
75059;SDS011;63640;59.264;18.116;2023-07-02T12:22:10;4.70;;;2.20;;
75059;SDS011;63640;59.264;18.116;2023-07-02T12:24:35;5.20;;;2.70;;
75059;SDS011;63640;59.264;18.116;2023-07-02T12:27:02;5.78;;;2.10;;
75059;SDS011;63640;59.264;18.116;2023-07-02T12:29:27;5.47;;;3.05;;
75059;SDS011;63640;59.264;18.116;2023-07-02T12:31:53;5.32;;;2.53;;
75059;SDS011;63640;59.264;18.116;2023-07-02T12:34:18;4.85;;;2.45;;
75059;SDS011;63640;59.264;18.116;2023-07-02T12:36:44;4.90;;;2.40;;
75059;SDS011;63640;59.264;18.116;2023-07-02T12:39:09;5.22;;;2.58;;
75059;SDS011;63640;59.264;18.116;2023-07-02T12:41:35;5.40;;;2.70;;
75059;SDS011;63640;59.264;18.116;2023-07-02T12:44:01;5.28;;;2.92;;
75059;SDS011;63640;59.264;18.116;2023-07-02T12:46:26;5.68;;;2.47;;
75059;SDS011;63640;59.264;18.116;2023-07-02T12:48:52;4.78;;;2.25;;
75059;SDS011;63640;59.264;18.116;2023-07-02T12:51:17;5.10;;;2.42;;
75059;SDS011;63640;59.264;18.116;2023-07-02T12:53:43;7.40;;;2.70;;
75059;SDS011;63640;59.264;18.116;2023-07-02T12:56:08;6.30;;;2.30;;
75059;SDS011;63640;59.264;18.116;2023-07-02T12:58:34;4.60;;;2.35;;
75059;SDS011;63640;59.264;18.116;2023-07-02T13:00:59;5.95;;;2.95;;
75059;SDS011;63640;59.264;18.116;2023-07-02T13:03:25;6.60;;;2.63;;
75059;SDS011;63640;59.264;18.116;2023-07-02T13:05:50;6.65;;;3.10;;
75059;SDS011;63640;59.264;18.116;2023-07-02T13:08:16;4.75;;;2.08;;
75059;SDS011;63640;59.264;18.116;2023-07-02T13:10:42;6.15;;;3.50;;
75059;SDS011;63640;59.264;18.116;2023-07-02T13:13:07;7.03;;;3.42;;
75059;SDS011;63640;59.264;18.116;2023-07-02T13:15:33;7.03;;;3.40;;
75059;SDS011;63640;59.264;18.116;2023-07-02T13:18:00;6.93;;;3.35;;
75059;SDS011;63640;59.264;18.116;2023-07-02T13:20:26;7.32;;;3.28;;
75059;SDS011;63640;59.264;18.116;2023-07-02T13:22:51;4.85;;;2.20;;
75059;SDS011;63640;59.264;18.116;2023-07-02T13:25:17;5.75;;;2.08;;
75059;SDS011;63640;59.264;18.116;2023-07-02T13:27:42;4.30;;;1.98;;
75059;SDS011;63640;59.264;18.116;2023-07-02T13:30:08;4.18;;;1.30;;
75059;SDS011;63640;59.264;18.116;2023-07-02T13:32:34;5.13;;;1.48;;
75059;SDS011;63640;59.264;18.116;2023-07-02T13:34:59;4.57;;;1.48;;
75059;SDS011;63640;59.264;18.116;2023-07-02T13:37:24;3.65;;;1.40;;
75059;SDS011;63640;59.264;18.116;2023-07-02T13:39:50;4.05;;;1.10;;
75059;SDS011;63640;59.264;18.116;2023-07-02T13:42:16;3.42;;;1.20;;
75059;SDS011;63640;59.264;18.116;2023-07-02T13:44:42;4.78;;;1.52;;
75059;SDS011;63640;59.264;18.116;2023-07-02T13:47:08;2.80;;;1.10;;
75059;SDS011;63640;59.264;18.116;2023-07-02T13:49:33;4.50;;;1.30;;
75059;SDS011;63640;59.264;18.116;2023-07-02T13:51:59;3.85;;;1.35;;
75059;SDS011;63640;59.264;18.116;2023-07-02T13:54:25;4.97;;;1.60;;
75059;SDS011;63640;59.264;18.116;2023-07-02T13:56:51;4.18;;;1.60;;
75059;SDS011;63640;59.264;18.116;2023-07-02T13:59:17;5.53;;;1.83;;
75059;SDS011;63640;59.264;18.116;2023-07-02T14:01:43;5.18;;;1.73;;
75059;SDS011;63640;59.264;18.116;2023-07-02T14:04:09;6.57;;;2.33;;
75059;SDS011;63640;59.264;18.116;2023-07-02T14:06:35;3.40;;;1.15;;
75059;SDS011;63640;59.264;18.116;2023-07-02T14:09:00;3.80;;;1.20;;
75059;SDS011;63640;59.264;18.116;2023-07-02T14:11:26;4.63;;;1.05;;
75059;SDS011;63640;59.264;18.116;2023-07-02T14:13:53;10.75;;;1.63;;
75059;SDS011;63640;59.264;18.116;2023-07-02T14:16:18;6.60;;;1.58;;
75059;SDS011;63640;59.264;18.116;2023-07-02T14:18:44;3.90;;;1.23;;
75059;SDS011;63640;59.264;18.116;2023-07-02T14:21:10;4.93;;;1.20;;
75059;SDS011;63640;59.264;18.116;2023-07-02T14:23:35;2.85;;;0.98;;
75059;SDS011;63640;59.264;18.116;2023-07-02T14:26:01;2.72;;;0.98;;
75059;SDS011;63640;59.264;18.116;2023-07-02T14:28:26;3.38;;;1.10;;
75059;SDS011;63640;59.264;18.116;2023-07-02T14:31:01;12.07;;;1.88;;
75059;SDS011;63640;59.264;18.116;2023-07-02T14:33:28;5.65;;;1.35;;
75059;SDS011;63640;59.264;18.116;2023-07-02T14:35:55;6.80;;;2.28;;
75059;SDS011;63640;59.264;18.116;2023-07-02T14:38:20;4.38;;;1.10;;